sensor_id;sensor_type;location;lat;lon;timestamp;temperature;humidity
45435;DHT22;31183;47.404;8.500;2023-07-13T00:02:15;20.80;99.90
45435;DHT22;31183;47.404;8.500;2023-07-13T00:04:42;20.80;99.90
45435;DHT22;31183;47.404;8.500;2023-07-13T00:07:09;20.80;99.90
45435;DHT22;31183;47.404;8.500;2023-07-13T00:09:36;20.80;99.90
45435;DHT22;31183;47.404;8.500;2023-07-13T00:12:02;20.80;99.90
45435;DHT22;31183;47.404;8.500;2023-07-13T00:14:29;20.70;99.90
45435;DHT22;31183;47.404;8.500;2023-07-13T00:16:55;20.80;99.90
45435;DHT22;31183;47.404;8.500;2023-07-13T00:19:22;20.80;99.90
45435;DHT22;31183;47.404;8.500;2023-07-13T00:21:49;20.80;99.90
45435;DHT22;31183;47.404;8.500;2023-07-13T00:24:16;20.80;99.90
45435;DHT22;31183;47.404;8.500;2023-07-13T00:26:48;20.70;99.90
45435;DHT22;31183;47.404;8.500;2023-07-13T00:29:15;20.60;99.90
45435;DHT22;31183;47.404;8.500;2023-07-13T00:31:42;20.50;99.90
45435;DHT22;31183;47.404;8.500;2023-07-13T00:34:10;20.50;99.90
45435;DHT22;31183;47.404;8.500;2023-07-13T00:36:36;20.40;99.90
45435;DHT22;31183;47.404;8.500;2023-07-13T00:39:04;20.40;99.90
45435;DHT22;31183;47.404;8.500;2023-07-13T00:41:31;20.30;99.90
45435;DHT22;31183;47.404;8.500;2023-07-13T00:43:57;20.30;99.90
45435;DHT22;31183;47.404;8.500;2023-07-13T00:46:25;20.40;99.90
45435;DHT22;31183;47.404;8.500;2023-07-13T00:48:53;20.30;99.90
45435;DHT22;31183;47.404;8.500;2023-07-13T00:51:22;20.20;99.90
45435;DHT22;31183;47.404;8.500;2023-07-13T00:53:51;20.20;99.90
45435;DHT22;31183;47.404;8.500;2023-07-13T00:56:18;20.20;99.90
45435;DHT22;31183;47.404;8.500;2023-07-13T00:58:45;20.30;99.90
45435;DHT22;31183;47.404;8.500;2023-07-13T01:01:11;20.50;99.90
45435;DHT22;31183;47.404;8.500;2023-07-13T01:03:39;20.50;99.90
45435;DHT22;31183;47.404;8.500;2023-07-13T01:06:07;20.50;99.90
45435;DHT22;31183;47.404;8.500;2023-07-13T01:08:35;20.50;99.90
45435;DHT22;31183;47.404;8.500;2023-07-13T01:11:02;20.50;99.90
45435;DHT22;31183;47.404;8.500;2023-07-13T01:13:29;20.50;99.90
45435;DHT22;31183;47.404;8.500;2023-07-13T01:15:56;20.50;99.90
45435;DHT22;31183;47.404;8.500;2023-07-13T01:18:25;20.50;99.90
45435;DHT22;31183;47.404;8.500;2023-07-13T01:21:00;20.60;99.90
45435;DHT22;31183;47.404;8.500;2023-07-13T01:23:27;20.70;99.90
45435;DHT22;31183;47.404;8.500;2023-07-13T01:25:54;20.60;99.90
45435;DHT22;31183;47.404;8.500;2023-07-13T01:28:21;20.50;99.90
45435;DHT22;31183;47.404;8.500;2023-07-13T01:30:48;20.60;99.90
45435;DHT22;31183;47.404;8.500;2023-07-13T01:33:16;20.50;99.90
45435;DHT22;31183;47.404;8.500;2023-07-13T01:35:43;20.40;99.90
45435;DHT22;31183;47.404;8.500;2023-07-13T01:38:10;20.30;99.90
45435;DHT22;31183;47.404;8.500;2023-07-13T01:40:37;20.30;99.90
45435;DHT22;31183;47.404;8.500;2023-07-13T01:43:04;20.30;99.90
45435;DHT22;31183;47.404;8.500;2023-07-13T01:45:31;20.20;99.90
45435;DHT22;31183;47.404;8.500;2023-07-13T01:47:57;20.10;99.90
45435;DHT22;31183;47.404;8.500;2023-07-13T01:50:25;20.00;99.90
45435;DHT22;31183;47.404;8.500;2023-07-13T01:52:52;19.90;99.90
45435;DHT22;31183;47.404;8.500;2023-07-13T01:55:19;19.90;99.90
45435;DHT22;31183;47.404;8.500;2023-07-13T01:57:46;19.90;99.90
45435;DHT22;31183;47.404;8.500;2023-07-13T02:00:13;19.90;99.90
45435;DHT22;31183;47.404;8.500;2023-07-13T02:02:40;19.90;99.90
45435;DHT22;31183;47.404;8.500;2023-07-13T02:05:10;19.80;99.90
45435;DHT22;31183;47.404;8.500;2023-07-13T02:07:38;19.80;99.90
45435;DHT22;31183;47.404;8.500;2023-07-13T02:10:05;19.80;99.90
45435;DHT22;31183;47.404;8.500;2023-07-13T02:12:33;19.80;99.90
45435;DHT22;31183;47.404;8.500;2023-07-13T02:14:59;19.70;99.90
45435;DHT22;31183;47.404;8.500;2023-07-13T02:17:26;19.70;99.90
45435;DHT22;31183;47.404;8.500;2023-07-13T02:19:53;19.70;99.90
45435;DHT22;31183;47.404;8.500;2023-07-13T02:22:20;19.70;99.90
45435;DHT22;31183;47.404;8.500;2023-07-13T02:24:47;19.70;99.90
45435;DHT22;31183;47.404;8.500;2023-07-13T02:27:14;19.70;99.90
45435;DHT22;31183;47.404;8.500;2023-07-13T02:29:40;19.60;99.90
45435;DHT22;31183;47.404;8.500;2023-07-13T02:32:07;19.70;99.90
45435;DHT22;31183;47.404;8.500;2023-07-13T02:34:34;19.80;99.90
45435;DHT22;31183;47.404;8.500;2023-07-13T02:37:00;20.00;99.90
45435;DHT22;31183;47.404;8.500;2023-07-13T02:39:27;20.10;99.90
45435;DHT22;31183;47.404;8.500;2023-07-13T02:41:54;19.90;99.90
45435;DHT22;31183;47.404;8.500;2023-07-13T02:44:21;19.90;99.90
45435;DHT22;31183;47.404;8.500;2023-07-13T02:46:47;19.80;99.90
45435;DHT22;31183;47.404;8.500;2023-07-13T02:49:14;19.70;99.90
45435;DHT22;31183;47.404;8.500;2023-07-13T02:51:41;19.70;99.90
45435;DHT22;31183;47.404;8.500;2023-07-13T02:54:08;19.80;99.90
45435;DHT22;31183;47.404;8.500;2023-07-13T02:56:35;20.00;99.90
45435;DHT22;31183;47.404;8.500;2023-07-13T02:59:02;20.10;99.90
45435;DHT22;31183;47.404;8.500;2023-07-13T03:01:28;20.00;99.90
45435;DHT22;31183;47.404;8.500;2023-07-13T03:03:55;19.80;99.90
45435;DHT22;31183;47.404;8.500;2023-07-13T03:06:22;19.70;99.90
45435;DHT22;31183;47.404;8.500;2023-07-13T03:08:49;19.60;99.90
45435;DHT22;31183;47.404;8.500;2023-07-13T03:11:17;19.60;99.90
45435;DHT22;31183;47.404;8.500;2023-07-13T03:13:44;19.50;99.90
45435;DHT22;31183;47.404;8.500;2023-07-13T03:16:11;19.50;99.90
45435;DHT22;31183;47.404;8.500;2023-07-13T03:18:41;19.50;99.90
45435;DHT22;31183;47.404;8.500;2023-07-13T03:21:07;19.50;99.90
45435;DHT22;31183;47.404;8.500;2023-07-13T03:23:34;19.40;99.90
45435;DHT22;31183;47.404;8.500;2023-07-13T03:26:11;19.40;99.90
45435;DHT22;31183;47.404;8.500;2023-07-13T03:28:39;19.40;99.90
45435;DHT22;31183;47.404;8.500;2023-07-13T03:31:07;19.40;99.90
45435;DHT22;31183;47.404;8.500;2023-07-13T03:33:34;19.40;99.90
45435;DHT22;31183;47.404;8.500;2023-07-13T03:36:01;19.40;99.90
45435;DHT22;31183;47.404;8.500;2023-07-13T03:38:29;19.40;99.90
45435;DHT22;31183;47.404;8.500;2023-07-13T03:40:55;19.40;99.90
45435;DHT22;31183;47.404;8.500;2023-07-13T03:43:22;19.40;99.90
45435;DHT22;31183;47.404;8.500;2023-07-13T03:45:48;19.40;99.90
45435;DHT22;31183;47.404;8.500;2023-07-13T03:48:15;19.40;99.90
45435;DHT22;31183;47.404;8.500;2023-07-13T03:50:42;19.40;99.90
45435;DHT22;31183;47.404;8.500;2023-07-13T03:53:08;19.40;99.90
45435;DHT22;31183;47.404;8.500;2023-07-13T03:55:35;19.40;99.90
45435;DHT22;31183;47.404;8.500;2023-07-13T04:00:47;19.40;99.90
45435;DHT22;31183;47.404;8.500;2023-07-13T04:03:13;19.50;99.90
45435;DHT22;31183;47.404;8.500;2023-07-13T04:05:40;19.60;99.90
45435;DHT22;31183;47.404;8.500;2023-07-13T04:08:07;19.80;99.90
45435;DHT22;31183;47.404;8.500;2023-07-13T04:10:33;19.90;99.90
45435;DHT22;31183;47.404;8.500;2023-07-13T04:13:00;20.00;99.90
45435;DHT22;31183;47.404;8.500;2023-07-13T04:15:28;20.00;99.90
45435;DHT22;31183;47.404;8.500;2023-07-13T04:17:55;20.00;99.90
45435;DHT22;31183;47.404;8.500;2023-07-13T04:20:22;20.00;99.90
45435;DHT22;31183;47.404;8.500;2023-07-13T04:22:48;20.10;99.90
45435;DHT22;31183;47.404;8.500;2023-07-13T04:25:15;20.00;99.90
45435;DHT22;31183;47.404;8.500;2023-07-13T04:27:42;20.00;99.90
45435;DHT22;31183;47.404;8.500;2023-07-13T04:30:08;20.10;99.90
45435;DHT22;31183;47.404;8.500;2023-07-13T04:32:35;19.90;99.90
45435;DHT22;31183;47.404;8.500;2023-07-13T04:35:02;19.80;99.90
45435;DHT22;31183;47.404;8.500;2023-07-13T04:37:29;19.70;99.90
45435;DHT22;31183;47.404;8.500;2023-07-13T04:39:55;19.70;99.90
45435;DHT22;31183;47.404;8.500;2023-07-13T04:42:22;19.70;99.90
45435;DHT22;31183;47.404;8.500;2023-07-13T04:44:49;19.60;99.90
45435;DHT22;31183;47.404;8.500;2023-07-13T04:47:16;19.60;99.90
45435;DHT22;31183;47.404;8.500;2023-07-13T04:49:42;19.80;99.90
45435;DHT22;31183;47.404;8.500;2023-07-13T04:52:09;19.90;99.90
45435;DHT22;31183;47.404;8.500;2023-07-13T04:54:35;20.00;99.90
45435;DHT22;31183;47.404;8.500;2023-07-13T04:57:03;20.00;99.90
45435;DHT22;31183;47.404;8.500;2023-07-13T04:59:32;19.90;99.90
45435;DHT22;31183;47.404;8.500;2023-07-13T05:01:59;19.70;99.90
45435;DHT22;31183;47.404;8.500;2023-07-13T05:04:26;19.60;99.90
45435;DHT22;31183;47.404;8.500;2023-07-13T05:06:52;19.60;99.90
45435;DHT22;31183;47.404;8.500;2023-07-13T05:09:19;19.60;99.90
45435;DHT22;31183;47.404;8.500;2023-07-13T05:11:45;19.60;99.90
45435;DHT22;31183;47.404;8.500;2023-07-13T05:14:12;19.80;99.90
45435;DHT22;31183;47.404;8.500;2023-07-13T05:16:38;19.90;99.90
45435;DHT22;31183;47.404;8.500;2023-07-13T05:19:05;20.00;99.90
45435;DHT22;31183;47.404;8.500;2023-07-13T05:21:31;20.10;99.90
45435;DHT22;31183;47.404;8.500;2023-07-13T05:23:58;20.10;99.90
45435;DHT22;31183;47.404;8.500;2023-07-13T05:26:36;20.00;99.90
45435;DHT22;31183;47.404;8.500;2023-07-13T05:29:03;19.90;99.90
45435;DHT22;31183;47.404;8.500;2023-07-13T05:31:29;19.80;99.90
45435;DHT22;31183;47.404;8.500;2023-07-13T05:33:56;19.70;99.90
45435;DHT22;31183;47.404;8.500;2023-07-13T05:36:22;19.60;99.90
45435;DHT22;31183;47.404;8.500;2023-07-13T05:38:49;19.60;99.90
45435;DHT22;31183;47.404;8.500;2023-07-13T05:41:16;19.50;99.90
45435;DHT22;31183;47.404;8.500;2023-07-13T05:43:42;19.50;99.90
45435;DHT22;31183;47.404;8.500;2023-07-13T05:46:09;19.70;99.90
45435;DHT22;31183;47.404;8.500;2023-07-13T05:48:35;19.80;99.90
45435;DHT22;31183;47.404;8.500;2023-07-13T05:51:02;19.80;99.90
45435;DHT22;31183;47.404;8.500;2023-07-13T05:53:29;19.60;99.90
45435;DHT22;31183;47.404;8.500;2023-07-13T05:55:55;19.60;99.90
45435;DHT22;31183;47.404;8.500;2023-07-13T05:58:23;19.60;99.90
45435;DHT22;31183;47.404;8.500;2023-07-13T06:00:57;19.60;99.90
45435;DHT22;31183;47.404;8.500;2023-07-13T06:03:24;19.50;99.90
45435;DHT22;31183;47.404;8.500;2023-07-13T06:05:51;19.50;99.90
45435;DHT22;31183;47.404;8.500;2023-07-13T06:08:18;19.40;99.90
45435;DHT22;31183;47.404;8.500;2023-07-13T06:10:44;19.30;99.90
45435;DHT22;31183;47.404;8.500;2023-07-13T06:13:11;19.30;99.90
45435;DHT22;31183;47.404;8.500;2023-07-13T06:15:37;19.20;99.90
45435;DHT22;31183;47.404;8.500;2023-07-13T06:18:04;19.20;99.90
45435;DHT22;31183;47.404;8.500;2023-07-13T06:20:33;19.20;99.90
45435;DHT22;31183;47.404;8.500;2023-07-13T06:23:00;19.10;99.90
45435;DHT22;31183;47.404;8.500;2023-07-13T06:25:27;19.20;99.90
45435;DHT22;31183;47.404;8.500;2023-07-13T06:27:54;19.10;99.90
45435;DHT22;31183;47.404;8.500;2023-07-13T06:30:21;19.20;99.90
45435;DHT22;31183;47.404;8.500;2023-07-13T06:32:47;19.20;99.90
45435;DHT22;31183;47.404;8.500;2023-07-13T06:35:14;19.20;99.90
45435;DHT22;31183;47.404;8.500;2023-07-13T06:37:40;19.30;99.90
45435;DHT22;31183;47.404;8.500;2023-07-13T06:40:07;19.30;99.90
45435;DHT22;31183;47.404;8.500;2023-07-13T06:42:34;19.30;99.90
45435;DHT22;31183;47.404;8.500;2023-07-13T06:45:00;19.20;99.90
45435;DHT22;31183;47.404;8.500;2023-07-13T06:47:27;19.20;99.90
45435;DHT22;31183;47.404;8.500;2023-07-13T06:49:54;19.20;99.90
45435;DHT22;31183;47.404;8.500;2023-07-13T06:52:21;19.10;99.90
45435;DHT22;31183;47.404;8.500;2023-07-13T06:54:47;19.10;99.90
45435;DHT22;31183;47.404;8.500;2023-07-13T06:57:14;19.20;99.90
45435;DHT22;31183;47.404;8.500;2023-07-13T06:59:40;19.20;99.90
45435;DHT22;31183;47.404;8.500;2023-07-13T07:02:08;19.20;99.90
45435;DHT22;31183;47.404;8.500;2023-07-13T07:04:35;19.20;99.90
45435;DHT22;31183;47.404;8.500;2023-07-13T07:07:02;19.20;99.90
45435;DHT22;31183;47.404;8.500;2023-07-13T07:09:29;19.10;99.90
45435;DHT22;31183;47.404;8.500;2023-07-13T07:11:57;19.10;99.90
45435;DHT22;31183;47.404;8.500;2023-07-13T07:14:30;19.00;99.90
45435;DHT22;31183;47.404;8.500;2023-07-13T07:16:56;19.10;99.90
45435;DHT22;31183;47.404;8.500;2023-07-13T07:19:25;19.10;99.90
45435;DHT22;31183;47.404;8.500;2023-07-13T07:21:51;19.20;99.90
45435;DHT22;31183;47.404;8.500;2023-07-13T07:24:18;19.10;99.90
45435;DHT22;31183;47.404;8.500;2023-07-13T07:26:45;19.20;99.90
45435;DHT22;31183;47.404;8.500;2023-07-13T07:29:14;19.20;99.90
45435;DHT22;31183;47.404;8.500;2023-07-13T07:31:44;19.20;99.90
45435;DHT22;31183;47.404;8.500;2023-07-13T07:34:13;19.30;99.90
45435;DHT22;31183;47.404;8.500;2023-07-13T07:36:40;19.30;99.90
45435;DHT22;31183;47.404;8.500;2023-07-13T07:39:09;19.30;99.90
45435;DHT22;31183;47.404;8.500;2023-07-13T07:41:36;19.40;99.90
45435;DHT22;31183;47.404;8.500;2023-07-13T07:44:05;19.30;99.90
45435;DHT22;31183;47.404;8.500;2023-07-13T07:46:34;19.30;99.90
45435;DHT22;31183;47.404;8.500;2023-07-13T07:49:00;19.30;99.90
45435;DHT22;31183;47.404;8.500;2023-07-13T07:51:27;19.20;99.90
45435;DHT22;31183;47.404;8.500;2023-07-13T07:53:54;19.20;99.90
45435;DHT22;31183;47.404;8.500;2023-07-13T07:56:20;19.20;99.90
45435;DHT22;31183;47.404;8.500;2023-07-13T07:58:50;19.30;99.90
45435;DHT22;31183;47.404;8.500;2023-07-13T08:01:19;19.40;99.90
45435;DHT22;31183;47.404;8.500;2023-07-13T08:03:49;19.50;99.90
45435;DHT22;31183;47.404;8.500;2023-07-13T08:06:18;19.70;99.90
45435;DHT22;31183;47.404;8.500;2023-07-13T08:08:51;20.00;99.90
45435;DHT22;31183;47.404;8.500;2023-07-13T08:11:17;20.20;99.90
45435;DHT22;31183;47.404;8.500;2023-07-13T08:13:47;20.30;99.90
45435;DHT22;31183;47.404;8.500;2023-07-13T08:16:16;20.40;99.90
45435;DHT22;31183;47.404;8.500;2023-07-13T08:18:42;20.40;99.90
45435;DHT22;31183;47.404;8.500;2023-07-13T08:21:09;20.40;99.90
45435;DHT22;31183;47.404;8.500;2023-07-13T08:23:36;20.40;99.90
45435;DHT22;31183;47.404;8.500;2023-07-13T08:26:03;20.50;99.90
45435;DHT22;31183;47.404;8.500;2023-07-13T08:28:30;20.70;99.90
45435;DHT22;31183;47.404;8.500;2023-07-13T08:31:02;20.80;99.90
45435;DHT22;31183;47.404;8.500;2023-07-13T08:33:29;20.90;99.90
45435;DHT22;31183;47.404;8.500;2023-07-13T08:35:55;20.90;99.90
45435;DHT22;31183;47.404;8.500;2023-07-13T08:38:22;20.80;99.90
45435;DHT22;31183;47.404;8.500;2023-07-13T08:40:50;20.70;99.90
45435;DHT22;31183;47.404;8.500;2023-07-13T08:43:19;20.60;99.90
45435;DHT22;31183;47.404;8.500;2023-07-13T08:45:47;20.60;99.90
45435;DHT22;31183;47.404;8.500;2023-07-13T08:48:26;20.70;99.90
45435;DHT22;31183;47.404;8.500;2023-07-13T08:53:31;21.50;99.90
45435;DHT22;31183;47.404;8.500;2023-07-13T08:56:00;21.50;99.90
45435;DHT22;31183;47.404;8.500;2023-07-13T08:58:27;21.50;99.90
45435;DHT22;31183;47.404;8.500;2023-07-13T09:00:59;21.50;99.90
45435;DHT22;31183;47.404;8.500;2023-07-13T09:03:31;21.80;99.90
45435;DHT22;31183;47.404;8.500;2023-07-13T09:06:02;22.10;99.90
45435;DHT22;31183;47.404;8.500;2023-07-13T09:08:42;22.50;99.90
45435;DHT22;31183;47.404;8.500;2023-07-13T09:11:19;22.60;99.90
45435;DHT22;31183;47.404;8.500;2023-07-13T09:16:31;22.50;99.90
45435;DHT22;31183;47.404;8.500;2023-07-13T09:19:03;22.30;99.90
45435;DHT22;31183;47.404;8.500;2023-07-13T09:21:37;22.20;99.90
45435;DHT22;31183;47.404;8.500;2023-07-13T09:26:44;22.20;99.90
45435;DHT22;31183;47.404;8.500;2023-07-13T09:29:13;22.20;99.90
45435;DHT22;31183;47.404;8.500;2023-07-13T09:31:44;22.20;99.90
45435;DHT22;31183;47.404;8.500;2023-07-13T09:34:13;22.20;99.90
45435;DHT22;31183;47.404;8.500;2023-07-13T09:36:40;22.10;99.90
45435;DHT22;31183;47.404;8.500;2023-07-13T09:41:53;21.80;99.90
45435;DHT22;31183;47.404;8.500;2023-07-13T09:45:08;21.70;99.90
45435;DHT22;31183;47.404;8.500;2023-07-13T09:47:18;21.60;99.90
45435;DHT22;31183;47.404;8.500;2023-07-13T09:49:45;21.60;99.90
45435;DHT22;31183;47.404;8.500;2023-07-13T09:52:14;21.50;99.90
45435;DHT22;31183;47.404;8.500;2023-07-13T09:54:43;21.50;99.90
45435;DHT22;31183;47.404;8.500;2023-07-13T09:57:14;21.60;99.90
45435;DHT22;31183;47.404;8.500;2023-07-13T09:59:49;21.60;99.90
45435;DHT22;31183;47.404;8.500;2023-07-13T10:02:22;21.60;99.90
45435;DHT22;31183;47.404;8.500;2023-07-13T10:04:55;21.60;99.90
45435;DHT22;31183;47.404;8.500;2023-07-13T10:07:22;21.50;99.90
45435;DHT22;31183;47.404;8.500;2023-07-13T10:09:59;21.60;99.90
45435;DHT22;31183;47.404;8.500;2023-07-13T10:12:28;21.40;99.90
45435;DHT22;31183;47.404;8.500;2023-07-13T10:14:55;21.30;99.90
45435;DHT22;31183;47.404;8.500;2023-07-13T10:17:42;21.20;99.90
45435;DHT22;31183;47.404;8.500;2023-07-13T10:20:10;21.30;99.90
45435;DHT22;31183;47.404;8.500;2023-07-13T10:22:43;21.30;99.90
45435;DHT22;31183;47.404;8.500;2023-07-13T10:25:19;21.30;99.90
45435;DHT22;31183;47.404;8.500;2023-07-13T10:27:46;21.30;99.90
45435;DHT22;31183;47.404;8.500;2023-07-13T10:32:42;21.30;99.90
45435;DHT22;31183;47.404;8.500;2023-07-13T10:35:11;21.40;99.90
45435;DHT22;31183;47.404;8.500;2023-07-13T10:40:11;21.40;99.90
45435;DHT22;31183;47.404;8.500;2023-07-13T10:42:39;21.50;99.90
45435;DHT22;31183;47.404;8.500;2023-07-13T10:45:12;21.60;99.90
45435;DHT22;31183;47.404;8.500;2023-07-13T10:47:39;21.70;99.90
45435;DHT22;31183;47.404;8.500;2023-07-13T10:50:07;21.70;99.90
45435;DHT22;31183;47.404;8.500;2023-07-13T10:55:29;21.90;99.90
45435;DHT22;31183;47.404;8.500;2023-07-13T10:57:59;21.90;99.90
45435;DHT22;31183;47.404;8.500;2023-07-13T11:00:26;22.10;99.90
45435;DHT22;31183;47.404;8.500;2023-07-13T11:02:56;22.00;99.90
45435;DHT22;31183;47.404;8.500;2023-07-13T11:08:04;22.30;99.90
45435;DHT22;31183;47.404;8.500;2023-07-13T11:10:46;22.30;99.90
45435;DHT22;31183;47.404;8.500;2023-07-13T11:18:51;22.30;99.90
45435;DHT22;31183;47.404;8.500;2023-07-13T11:21:22;22.30;99.90
45435;DHT22;31183;47.404;8.500;2023-07-13T11:31:41;22.30;99.20
45435;DHT22;31183;47.404;8.500;2023-07-13T11:34:12;22.30;99.60
45435;DHT22;31183;47.404;8.500;2023-07-13T11:36:39;22.40;98.70
45435;DHT22;31183;47.404;8.500;2023-07-13T11:39:20;22.30;98.30
45435;DHT22;31183;47.404;8.500;2023-07-13T11:41:57;22.40;98.00
45435;DHT22;31183;47.404;8.500;2023-07-13T11:44:26;22.30;97.70
45435;DHT22;31183;47.404;8.500;2023-07-13T11:46:53;22.40;97.70
45435;DHT22;31183;47.404;8.500;2023-07-13T11:49:22;22.40;97.20
45435;DHT22;31183;47.404;8.500;2023-07-13T11:51:50;22.40;97.20
45435;DHT22;31183;47.404;8.500;2023-07-13T11:54:27;22.40;97.90
45435;DHT22;31183;47.404;8.500;2023-07-13T11:56:56;22.50;97.40
45435;DHT22;31183;47.404;8.500;2023-07-13T11:59:24;22.50;97.10
45435;DHT22;31183;47.404;8.500;2023-07-13T12:01:52;22.50;96.90
45435;DHT22;31183;47.404;8.500;2023-07-13T12:04:24;22.60;97.40
45435;DHT22;31183;47.404;8.500;2023-07-13T12:06:55;22.60;97.80
45435;DHT22;31183;47.404;8.500;2023-07-13T12:09:22;22.70;97.30
45435;DHT22;31183;47.404;8.500;2023-07-13T12:11:51;22.80;97.30
45435;DHT22;31183;47.404;8.500;2023-07-13T12:14:18;22.90;98.90
45435;DHT22;31183;47.404;8.500;2023-07-13T12:16:46;22.90;97.70
45435;DHT22;31183;47.404;8.500;2023-07-13T12:21:46;22.90;98.00
45435;DHT22;31183;47.404;8.500;2023-07-13T12:24:14;22.90;95.90
45435;DHT22;31183;47.404;8.500;2023-07-13T12:26:41;22.80;95.00
45435;DHT22;31183;47.404;8.500;2023-07-13T12:29:08;22.70;95.70
45435;DHT22;31183;47.404;8.500;2023-07-13T12:31:41;22.60;95.10
45435;DHT22;31183;47.404;8.500;2023-07-13T12:34:13;22.60;94.70
45435;DHT22;31183;47.404;8.500;2023-07-13T12:36:47;22.50;94.80
45435;DHT22;31183;47.404;8.500;2023-07-13T12:41:44;22.60;96.50
45435;DHT22;31183;47.404;8.500;2023-07-13T12:44:12;22.60;96.30
45435;DHT22;31183;47.404;8.500;2023-07-13T12:46:41;22.60;96.30
45435;DHT22;31183;47.404;8.500;2023-07-13T12:49:19;22.60;94.60
45435;DHT22;31183;47.404;8.500;2023-07-13T12:51:55;22.50;94.40
45435;DHT22;31183;47.404;8.500;2023-07-13T12:54:22;22.50;94.70
45435;DHT22;31183;47.404;8.500;2023-07-13T12:56:49;22.40;94.90
45435;DHT22;31183;47.404;8.500;2023-07-13T12:59:20;22.30;95.60
45435;DHT22;31183;47.404;8.500;2023-07-13T13:01:47;22.30;94.60
45435;DHT22;31183;47.404;8.500;2023-07-13T13:04:15;22.30;95.60
45435;DHT22;31183;47.404;8.500;2023-07-13T13:06:43;22.30;96.50
45435;DHT22;31183;47.404;8.500;2023-07-13T13:09:14;22.30;95.60
45435;DHT22;31183;47.404;8.500;2023-07-13T13:11:41;22.30;95.00
45435;DHT22;31183;47.404;8.500;2023-07-13T13:14:08;22.40;95.00
45435;DHT22;31183;47.404;8.500;2023-07-13T13:16:35;22.30;95.10
45435;DHT22;31183;47.404;8.500;2023-07-13T13:21:42;22.30;95.10
45435;DHT22;31183;47.404;8.500;2023-07-13T13:24:13;22.30;95.10
45435;DHT22;31183;47.404;8.500;2023-07-13T13:26:40;22.30;95.20
45435;DHT22;31183;47.404;8.500;2023-07-13T13:29:10;22.40;94.40
45435;DHT22;31183;47.404;8.500;2023-07-13T13:31:37;22.40;94.90
45435;DHT22;31183;47.404;8.500;2023-07-13T13:34:07;22.60;95.70
45435;DHT22;31183;47.404;8.500;2023-07-13T13:36:34;22.70;94.30
45435;DHT22;31183;47.404;8.500;2023-07-13T13:39:01;22.80;92.80
45435;DHT22;31183;47.404;8.500;2023-07-13T13:41:28;22.90;93.00
45435;DHT22;31183;47.404;8.500;2023-07-13T13:43:54;22.90;93.30
45435;DHT22;31183;47.404;8.500;2023-07-13T13:46:22;22.90;91.40
45435;DHT22;31183;47.404;8.500;2023-07-13T13:48:51;22.90;91.70
45435;DHT22;31183;47.404;8.500;2023-07-13T13:51:21;22.80;92.00
45435;DHT22;31183;47.404;8.500;2023-07-13T13:53:48;22.70;92.50
45435;DHT22;31183;47.404;8.500;2023-07-13T13:56:15;22.70;93.30
45435;DHT22;31183;47.404;8.500;2023-07-13T13:58:43;22.70;94.30
45435;DHT22;31183;47.404;8.500;2023-07-13T14:01:11;22.80;94.20
45435;DHT22;31183;47.404;8.500;2023-07-13T14:03:39;22.90;93.10
45435;DHT22;31183;47.404;8.500;2023-07-13T14:06:05;23.10;93.80
45435;DHT22;31183;47.404;8.500;2023-07-13T14:08:34;23.20;93.00
45435;DHT22;31183;47.404;8.500;2023-07-13T14:11:00;23.20;93.50
45435;DHT22;31183;47.404;8.500;2023-07-13T14:13:28;23.20;93.40
45435;DHT22;31183;47.404;8.500;2023-07-13T14:15:55;23.20;92.80
45435;DHT22;31183;47.404;8.500;2023-07-13T14:18:22;23.20;93.60
45435;DHT22;31183;47.404;8.500;2023-07-13T14:20:50;23.10;94.20
45435;DHT22;31183;47.404;8.500;2023-07-13T14:23:19;23.10;92.10
45435;DHT22;31183;47.404;8.500;2023-07-13T14:25:46;23.10;92.50
45435;DHT22;31183;47.404;8.500;2023-07-13T14:28:20;23.10;93.20
45435;DHT22;31183;47.404;8.500;2023-07-13T14:30:48;23.00;93.40
45435;DHT22;31183;47.404;8.500;2023-07-13T14:33:15;23.00;93.20
45435;DHT22;31183;47.404;8.500;2023-07-13T14:35:41;22.90;91.00
45435;DHT22;31183;47.404;8.500;2023-07-13T14:38:10;22.90;92.30
45435;DHT22;31183;47.404;8.500;2023-07-13T14:40:37;22.90;92.60
45435;DHT22;31183;47.404;8.500;2023-07-13T14:43:14;22.90;91.10
45435;DHT22;31183;47.404;8.500;2023-07-13T14:45:43;22.90;90.00
45435;DHT22;31183;47.404;8.500;2023-07-13T14:48:14;23.00;87.60
45435;DHT22;31183;47.404;8.500;2023-07-13T14:50:41;23.00;87.50
45435;DHT22;31183;47.404;8.500;2023-07-13T14:53:11;23.00;86.50
45435;DHT22;31183;47.404;8.500;2023-07-13T14:55:38;23.00;88.20
45435;DHT22;31183;47.404;8.500;2023-07-13T14:58:05;23.00;87.30
45435;DHT22;31183;47.404;8.500;2023-07-13T15:00:32;23.00;87.00
45435;DHT22;31183;47.404;8.500;2023-07-13T15:02:59;23.00;84.60
45435;DHT22;31183;47.404;8.500;2023-07-13T15:05:28;23.00;88.30
45435;DHT22;31183;47.404;8.500;2023-07-13T15:07:59;23.00;90.70
45435;DHT22;31183;47.404;8.500;2023-07-13T15:10:27;22.90;89.10
45435;DHT22;31183;47.404;8.500;2023-07-13T15:12:58;23.00;82.50
45435;DHT22;31183;47.404;8.500;2023-07-13T15:15:24;23.00;80.50
45435;DHT22;31183;47.404;8.500;2023-07-13T15:17:51;23.10;83.10
45435;DHT22;31183;47.404;8.500;2023-07-13T15:20:23;23.00;81.20
45435;DHT22;31183;47.404;8.500;2023-07-13T15:22:51;23.00;81.60
45435;DHT22;31183;47.404;8.500;2023-07-13T15:25:19;23.00;82.90
45435;DHT22;31183;47.404;8.500;2023-07-13T15:27:46;23.00;83.90
45435;DHT22;31183;47.404;8.500;2023-07-13T15:30:13;23.00;79.10
45435;DHT22;31183;47.404;8.500;2023-07-13T15:32:42;23.10;79.10
45435;DHT22;31183;47.404;8.500;2023-07-13T15:35:13;23.10;77.20
45435;DHT22;31183;47.404;8.500;2023-07-13T15:37:39;23.10;76.90
45435;DHT22;31183;47.404;8.500;2023-07-13T15:40:06;23.10;79.60
45435;DHT22;31183;47.404;8.500;2023-07-13T15:42:33;23.00;79.30
45435;DHT22;31183;47.404;8.500;2023-07-13T15:45:02;23.00;80.40
45435;DHT22;31183;47.404;8.500;2023-07-13T15:47:29;23.00;80.80
45435;DHT22;31183;47.404;8.500;2023-07-13T15:49:55;23.00;81.30
45435;DHT22;31183;47.404;8.500;2023-07-13T15:52:24;23.00;80.00
45435;DHT22;31183;47.404;8.500;2023-07-13T15:54:51;22.90;81.10
45435;DHT22;31183;47.404;8.500;2023-07-13T15:57:18;23.00;79.80
45435;DHT22;31183;47.404;8.500;2023-07-13T15:59:45;22.90;80.20
45435;DHT22;31183;47.404;8.500;2023-07-13T16:02:19;22.90;76.90
45435;DHT22;31183;47.404;8.500;2023-07-13T16:04:46;22.90;77.20
45435;DHT22;31183;47.404;8.500;2023-07-13T16:07:13;22.90;75.80
45435;DHT22;31183;47.404;8.500;2023-07-13T16:09:42;22.80;78.10
45435;DHT22;31183;47.404;8.500;2023-07-13T16:12:12;22.80;76.40
45435;DHT22;31183;47.404;8.500;2023-07-13T16:14:39;22.90;81.10
45435;DHT22;31183;47.404;8.500;2023-07-13T16:17:12;22.90;76.70
45435;DHT22;31183;47.404;8.500;2023-07-13T16:19:40;22.90;74.80
45435;DHT22;31183;47.404;8.500;2023-07-13T16:22:17;23.00;79.40